Terminal Aerodrome Forecast
Issued by NWS Topeka, KS

Home | Current Version | Previous Version | Graphics & Text | Print | Product List | Glossary On
Versions: 1 2 3 4 5 6 7 8 9 10 11 12 13 14 15 16 17 18 19 20 21 22 23 24
198
FTUS43 KTOP 131731
TAFTOP
TAF
KTOP 131731Z 1318/1418 VRB03KT P6SM BKN050
     FM140500 16005KT 2SM -SN OVC030
     FM141400 17005KT P6SM BKN040=

USA.gov is the U.S. government's official web portal to all federal, state and local government web resources and services.